createdAt,value
2023-06-24T00:00:23.388Z,71.00
2023-06-24T00:02:52.495Z,70.80
2023-06-24T00:05:19.393Z,70.60
2023-06-24T00:07:46.981Z,70.70
2023-06-24T00:10:15.290Z,70.60
2023-06-24T00:12:44.040Z,71.00
2023-06-24T00:15:11.647Z,71.10
2023-06-24T00:17:38.870Z,71.10
2023-06-24T00:20:08.729Z,71.10
2023-06-24T00:22:37.099Z,71.10
2023-06-24T00:25:06.493Z,71.10
2023-06-24T00:27:33.337Z,70.90
2023-06-24T00:30:00.328Z,71.00
2023-06-24T00:32:27.282Z,71.10
2023-06-24T00:34:54.232Z,71.00
2023-06-24T00:37:21.070Z,71.20
2023-06-24T00:39:48.153Z,71.60
2023-06-24T00:42:15.077Z,71.60
2023-06-24T00:44:41.960Z,71.40
2023-06-24T00:47:12.009Z,71.60
2023-06-24T00:49:39.266Z,71.70
2023-06-24T00:52:06.534Z,71.60
2023-06-24T00:54:33.834Z,71.50
2023-06-24T00:57:01.609Z,71.50
2023-06-24T00:59:31.250Z,71.60
2023-06-24T01:02:02.935Z,71.60
2023-06-24T01:04:29.954Z,71.40
2023-06-24T01:06:56.937Z,71.40
2023-06-24T01:09:24.429Z,71.30
2023-06-24T01:11:51.236Z,71.20
2023-06-24T01:14:21.263Z,71.00
2023-06-24T01:17:13.886Z,71.10
2023-06-24T01:19:47.102Z,71.00
2023-06-24T01:22:22.373Z,71.10
2023-06-24T01:25:06.579Z,71.10
2023-06-24T01:28:11.636Z,71.00
2023-06-24T01:30:56.805Z,71.10
2023-06-24T01:33:51.779Z,70.90
2023-06-24T01:36:19.510Z,71.00
2023-06-24T01:38:49.766Z,71.20
2023-06-24T01:41:18.044Z,71.20
2023-06-24T01:43:45.303Z,71.40
2023-06-24T01:46:12.078Z,71.30
2023-06-24T01:48:39.014Z,71.30
2023-06-24T01:51:09.451Z,71.20
2023-06-24T01:53:43.943Z,71.00
2023-06-24T01:56:12.404Z,70.90
2023-06-24T01:58:40.439Z,70.90
2023-06-24T02:01:07.266Z,71.10
2023-06-24T02:03:34.290Z,71.10
2023-06-24T02:06:01.992Z,71.00
2023-06-24T02:08:31.221Z,71.00
2023-06-24T02:10:58.083Z,71.10
2023-06-24T02:13:24.905Z,71.00
2023-06-24T02:15:51.688Z,71.10
2023-06-24T02:18:18.900Z,70.90
2023-06-24T02:20:46.013Z,71.20
2023-06-24T02:23:13.147Z,71.10
2023-06-24T02:25:41.440Z,71.00
2023-06-24T02:28:08.445Z,71.00
2023-06-24T02:30:39.083Z,71.00
2023-06-24T02:33:06.247Z,71.00
2023-06-24T02:35:33.610Z,71.00
2023-06-24T02:38:00.628Z,70.90
2023-06-24T02:40:27.588Z,71.00
2023-06-24T02:42:54.379Z,71.00
2023-06-24T02:45:21.735Z,71.00
2023-06-24T02:47:48.629Z,71.00
2023-06-24T02:50:16.008Z,70.80
2023-06-24T02:52:42.855Z,70.90
2023-06-24T02:55:10.386Z,70.90
2023-06-24T02:57:37.486Z,70.80
2023-06-24T03:00:15.780Z,70.70
2023-06-24T03:02:43.929Z,71.00
2023-06-24T03:05:11.639Z,70.90
2023-06-24T03:07:38.995Z,71.10
2023-06-24T03:10:06.869Z,71.00
2023-06-24T03:12:33.838Z,71.00
2023-06-24T03:15:02.144Z,70.90
2023-06-24T03:17:29.189Z,70.90
2023-06-24T03:19:56.070Z,71.10
2023-06-24T03:22:23.370Z,70.90
2023-06-24T03:24:50.428Z,71.20
2023-06-24T03:27:17.247Z,71.20
2023-06-24T03:29:44.428Z,71.30
2023-06-24T03:32:11.245Z,71.10
2023-06-24T03:34:38.455Z,70.90
2023-06-24T03:37:05.636Z,70.90
2023-06-24T03:39:32.448Z,71.10
2023-06-24T03:41:59.298Z,71.10
2023-06-24T03:44:26.200Z,71.10
2023-06-24T03:46:53.270Z,70.90
2023-06-24T03:49:20.164Z,70.80
2023-06-24T03:51:47.280Z,70.80
2023-06-24T03:54:14.072Z,71.00
2023-06-24T03:56:41.495Z,71.00
2023-06-24T03:59:09.267Z,71.10
2023-06-24T04:01:37.502Z,71.10
2023-06-24T04:04:05.113Z,71.10
2023-06-24T04:06:32.166Z,71.00
2023-06-24T04:09:00.401Z,71.10
2023-06-24T04:11:27.220Z,71.20
2023-06-24T04:13:54.116Z,71.20
2023-06-24T04:16:20.912Z,71.10
2023-06-24T04:18:47.778Z,71.40
2023-06-24T04:21:15.782Z,71.70
2023-06-24T04:23:42.672Z,71.70
2023-06-24T04:26:09.534Z,71.50
2023-06-24T04:28:36.533Z,71.60
2023-06-24T04:31:05.248Z,71.70
2023-06-24T04:33:32.134Z,71.70
2023-06-24T04:35:59.800Z,71.70
2023-06-24T04:38:26.582Z,71.80
2023-06-24T04:40:54.321Z,71.80
2023-06-24T04:43:21.205Z,71.80
2023-06-24T04:45:48.072Z,72.00
2023-06-24T04:48:14.974Z,72.10
2023-06-24T04:50:42.456Z,71.80
2023-06-24T04:53:09.634Z,71.70
2023-06-24T04:55:37.148Z,71.70
2023-06-24T04:58:04.169Z,71.40
2023-06-24T05:00:31.517Z,71.40
2023-06-24T05:02:58.453Z,71.30
2023-06-24T05:05:26.471Z,71.30
2023-06-24T05:07:53.627Z,71.30
2023-06-24T05:10:20.800Z,71.40
2023-06-24T05:12:47.674Z,71.30
2023-06-24T05:15:14.962Z,71.30
2023-06-24T05:17:41.862Z,71.40
2023-06-24T05:20:09.598Z,71.40
2023-06-24T05:22:36.606Z,71.30
2023-06-24T05:25:04.019Z,71.30
2023-06-24T05:27:30.847Z,71.30
2023-06-24T05:29:57.658Z,71.20
2023-06-24T05:32:24.494Z,71.40
2023-06-24T05:34:51.818Z,71.20
2023-06-24T05:37:18.670Z,71.40
2023-06-24T05:39:45.477Z,71.20
2023-06-24T05:42:12.560Z,71.50
2023-06-24T05:44:39.439Z,71.40
2023-06-24T05:47:07.395Z,71.70
2023-06-24T05:49:34.248Z,71.40
2023-06-24T05:52:01.561Z,71.50
2023-06-24T05:54:28.405Z,71.50
2023-06-24T05:56:55.331Z,71.40
2023-06-24T05:59:22.134Z,71.70
2023-06-24T06:01:48.985Z,71.70
2023-06-24T06:04:15.965Z,71.80
2023-06-24T06:06:43.289Z,71.80
2023-06-24T06:09:10.752Z,71.90
2023-06-24T06:11:37.603Z,71.70
2023-06-24T06:14:04.699Z,71.70
2023-06-24T06:16:31.518Z,71.90
2023-06-24T06:18:58.354Z,72.00
2023-06-24T06:21:25.668Z,72.00
2023-06-24T06:23:52.516Z,72.20
2023-06-24T06:26:19.391Z,72.30
2023-06-24T06:28:48.361Z,72.50
2023-06-24T06:31:15.559Z,72.40
2023-06-24T06:33:43.016Z,72.40
2023-06-24T06:36:09.843Z,72.60
2023-06-24T06:38:37.158Z,73.70
2023-06-24T06:41:04.016Z,72.90
2023-06-24T06:43:30.844Z,72.80
2023-06-24T06:45:57.749Z,72.90
2023-06-24T06:48:24.674Z,72.80
2023-06-24T06:50:53.549Z,72.90
2023-06-24T06:53:21.070Z,72.80
2023-06-24T06:55:47.849Z,72.60
2023-06-24T06:58:14.668Z,72.60
2023-06-24T07:00:41.483Z,72.70
2023-06-24T07:03:08.344Z,72.50
2023-06-24T07:05:38.534Z,72.50
2023-06-24T07:08:09.016Z,72.60
2023-06-24T07:10:38.442Z,72.50
2023-06-24T07:13:05.397Z,72.30
2023-06-24T07:15:32.326Z,72.40
2023-06-24T07:17:59.478Z,72.30
2023-06-24T07:20:26.310Z,73.10
2023-06-24T07:22:53.272Z,72.10
2023-06-24T07:25:22.564Z,72.10
2023-06-24T07:27:49.569Z,72.10
2023-06-24T07:30:16.389Z,72.00
2023-06-24T07:32:46.596Z,71.90
2023-06-24T07:35:14.426Z,71.70
2023-06-24T07:37:41.258Z,71.90
2023-06-24T07:40:09.448Z,71.70
2023-06-24T07:42:36.270Z,71.60
2023-06-24T07:45:03.369Z,71.80
2023-06-24T07:47:30.235Z,71.70
2023-06-24T07:49:57.464Z,71.60
2023-06-24T07:52:24.280Z,71.40
2023-06-24T07:54:51.018Z,72.20
2023-06-24T07:57:17.826Z,71.30
2023-06-24T07:59:44.664Z,71.10
2023-06-24T08:02:14.269Z,71.20
2023-06-24T08:04:41.753Z,71.00
2023-06-24T08:07:08.864Z,70.90
2023-06-24T08:09:36.048Z,71.00
2023-06-24T08:12:02.959Z,70.80
2023-06-24T08:14:30.375Z,70.80
2023-06-24T08:16:57.170Z,70.90
2023-06-24T08:19:24.639Z,70.90
2023-06-24T08:21:51.560Z,71.00
2023-06-24T08:24:18.464Z,70.50
2023-06-24T08:26:45.255Z,70.40
2023-06-24T08:29:12.059Z,70.50
2023-06-24T08:31:39.086Z,70.60
2023-06-24T08:34:07.954Z,70.70
2023-06-24T08:36:34.888Z,70.80
2023-06-24T08:39:01.781Z,70.50
2023-06-24T08:41:28.748Z,70.70
2023-06-24T08:43:55.880Z,70.80
2023-06-24T08:46:22.975Z,70.60
2023-06-24T08:48:50.270Z,70.20
2023-06-24T08:51:20.006Z,70.20
2023-06-24T08:53:47.343Z,70.20
2023-06-24T08:56:14.863Z,70.00
2023-06-24T08:58:42.134Z,70.10
2023-06-24T09:01:09.153Z,70.10
2023-06-24T09:03:36.914Z,70.10
2023-06-24T09:06:04.000Z,70.00
2023-06-24T09:08:31.040Z,70.00
2023-06-24T09:10:57.929Z,69.90
2023-06-24T09:13:37.426Z,69.80
2023-06-24T09:16:15.208Z,70.10
2023-06-24T09:18:42.349Z,70.10
2023-06-24T09:21:12.196Z,70.10
2023-06-24T09:23:39.871Z,69.90
2023-06-24T09:26:12.235Z,70.20
2023-06-24T09:28:39.048Z,70.30
2023-06-24T09:31:19.016Z,70.30
2023-06-24T09:33:48.474Z,70.00
2023-06-24T09:36:15.974Z,70.20
2023-06-24T09:38:47.026Z,69.90
2023-06-24T09:41:15.008Z,70.10
2023-06-24T09:43:43.891Z,70.10
2023-06-24T09:46:10.838Z,70.10
2023-06-24T09:48:37.994Z,70.30
2023-06-24T09:51:07.796Z,69.90
2023-06-24T09:53:36.029Z,69.90
2023-06-24T09:56:04.832Z,70.00
2023-06-24T09:58:33.429Z,70.00
2023-06-24T10:01:05.189Z,69.90
2023-06-24T10:03:36.870Z,70.00
2023-06-24T10:06:04.156Z,70.10
2023-06-24T10:08:31.517Z,70.10
2023-06-24T10:10:58.502Z,70.10
2023-06-24T10:13:25.440Z,70.00
2023-06-24T10:15:52.504Z,69.90
2023-06-24T10:18:38.613Z,69.50
2023-06-24T10:21:06.586Z,69.40
2023-06-24T10:23:44.096Z,69.30
2023-06-24T10:26:25.989Z,69.50
2023-06-24T10:29:08.068Z,69.20
2023-06-24T10:31:41.214Z,69.10
2023-06-24T10:34:31.169Z,68.60
2023-06-24T10:36:59.601Z,68.80
2023-06-24T10:39:50.154Z,68.60
2023-06-24T10:42:29.621Z,68.50
2023-06-24T10:45:00.812Z,68.20
2023-06-24T10:47:28.786Z,68.20
2023-06-24T10:49:55.695Z,68.10
2023-06-24T10:52:23.937Z,68.10
2023-06-24T10:54:51.677Z,67.70
2023-06-24T10:57:24.102Z,67.90
2023-06-24T10:59:51.643Z,67.80
2023-06-24T11:02:19.682Z,67.60
2023-06-24T11:04:50.358Z,67.50
2023-06-24T11:07:24.711Z,67.10
2023-06-24T11:09:56.442Z,67.40
2023-06-24T11:12:27.782Z,67.30
2023-06-24T11:15:01.770Z,67.10
2023-06-24T11:17:28.980Z,66.90
2023-06-24T11:19:56.140Z,67.00
2023-06-24T11:22:23.634Z,66.40
2023-06-24T11:24:50.472Z,66.60
2023-06-24T11:27:17.393Z,66.80
2023-06-24T11:29:44.920Z,66.60
2023-06-24T11:32:11.990Z,66.50
2023-06-24T11:34:38.762Z,66.40
2023-06-24T11:37:18.038Z,66.40
2023-06-24T11:39:44.904Z,65.90
2023-06-24T11:42:12.516Z,66.00
2023-06-24T11:44:45.976Z,65.80
2023-06-24T11:47:13.777Z,65.90
2023-06-24T11:49:56.192Z,65.90
2023-06-24T11:52:50.192Z,65.40
2023-06-24T11:55:24.756Z,65.30
2023-06-24T11:57:53.061Z,65.10
2023-06-24T12:00:24.711Z,65.30
2023-06-24T12:02:53.786Z,65.20
2023-06-24T12:05:48.052Z,64.70
2023-06-24T12:08:18.276Z,64.80
2023-06-24T12:10:45.400Z,64.40
2023-06-24T12:13:12.505Z,64.30
2023-06-24T12:15:39.418Z,64.50
2023-06-24T12:18:09.425Z,64.40
2023-06-24T12:20:39.041Z,63.90
2023-06-24T12:23:06.299Z,64.10
2023-06-24T12:25:33.564Z,64.00
2023-06-24T12:28:01.104Z,64.00
2023-06-24T12:30:28.539Z,63.70
2023-06-24T12:32:55.512Z,63.70
2023-06-24T12:35:26.554Z,63.80
2023-06-24T12:37:53.610Z,63.60
2023-06-24T12:40:20.733Z,63.70
2023-06-24T12:42:47.786Z,63.50
2023-06-24T12:45:14.823Z,63.30
2023-06-24T12:47:42.152Z,63.10
2023-06-24T12:50:10.196Z,63.30
2023-06-24T12:52:38.297Z,63.20
2023-06-24T12:55:07.847Z,63.10
2023-06-24T12:57:35.322Z,63.10
2023-06-24T13:00:02.109Z,62.70
2023-06-24T13:02:28.947Z,62.90
2023-06-24T13:04:55.992Z,62.60
2023-06-24T13:07:22.922Z,62.60
2023-06-24T13:09:50.078Z,62.40
2023-06-24T13:12:16.914Z,62.60
2023-06-24T13:14:43.752Z,62.20
2023-06-24T13:17:10.610Z,62.30
2023-06-24T13:19:37.503Z,62.40
2023-06-24T13:22:04.570Z,61.90
2023-06-24T13:24:31.639Z,61.40
2023-06-24T13:26:58.822Z,61.70
2023-06-24T13:29:25.755Z,61.40
2023-06-24T13:31:53.019Z,61.50
2023-06-24T13:34:20.174Z,61.60
2023-06-24T13:36:48.118Z,61.10
2023-06-24T13:39:18.035Z,61.30
2023-06-24T13:41:48.209Z,60.90
2023-06-24T13:44:15.075Z,61.00
2023-06-24T13:46:42.427Z,60.50
2023-06-24T13:49:09.367Z,60.70
2023-06-24T13:51:36.689Z,60.80
2023-06-24T13:54:03.591Z,60.60
2023-06-24T13:56:31.046Z,60.30
2023-06-24T13:58:58.844Z,60.50
2023-06-24T14:01:26.153Z,60.30
2023-06-24T14:03:54.030Z,60.10
2023-06-24T14:06:21.651Z,59.90
2023-06-24T14:08:48.676Z,59.90
2023-06-24T14:11:16.040Z,59.80
2023-06-24T14:13:42.957Z,59.90
2023-06-24T14:16:10.212Z,59.50
2023-06-24T14:18:37.520Z,59.70
2023-06-24T14:21:05.560Z,59.80
2023-06-24T14:23:32.662Z,59.60
2023-06-24T14:26:00.376Z,59.40
2023-06-24T14:28:27.290Z,59.50
2023-06-24T14:30:54.201Z,59.60
2023-06-24T14:33:21.133Z,59.40
2023-06-24T14:35:48.191Z,59.40
2023-06-24T14:38:15.059Z,59.40
2023-06-24T14:40:42.395Z,59.20
2023-06-24T14:43:09.184Z,59.20
2023-06-24T14:45:37.484Z,58.70
2023-06-24T14:48:04.382Z,58.90
2023-06-24T14:50:31.750Z,59.40
2023-06-24T14:52:58.604Z,58.70
2023-06-24T14:55:25.477Z,58.50
2023-06-24T14:57:52.292Z,58.60
2023-06-24T15:00:19.215Z,58.60
2023-06-24T15:02:46.142Z,58.50
2023-06-24T15:05:12.987Z,58.30
2023-06-24T15:07:40.485Z,58.00
2023-06-24T15:10:07.755Z,58.10
2023-06-24T15:12:35.824Z,58.10
2023-06-24T15:15:02.778Z,58.20
2023-06-24T15:17:31.374Z,58.20
2023-06-24T15:19:58.288Z,58.10
2023-06-24T15:22:25.213Z,58.00
2023-06-24T15:24:52.172Z,57.90
2023-06-24T15:27:19.202Z,58.00
2023-06-24T15:29:46.025Z,57.80
2023-06-24T15:32:13.312Z,58.00
2023-06-24T15:34:40.128Z,58.00
2023-06-24T15:37:07.597Z,58.00
2023-06-24T15:39:34.803Z,57.90
2023-06-24T15:42:02.149Z,57.90
2023-06-24T15:44:28.948Z,57.90
2023-06-24T15:46:55.854Z,57.90
2023-06-24T15:49:22.736Z,57.90
2023-06-24T15:51:49.526Z,58.00
2023-06-24T15:54:16.782Z,58.00
2023-06-24T15:56:44.139Z,57.90
2023-06-24T15:59:11.026Z,57.80
2023-06-24T16:01:37.919Z,57.90
2023-06-24T16:04:05.486Z,57.80
2023-06-24T16:06:32.354Z,57.90
2023-06-24T16:08:59.564Z,57.90
2023-06-24T16:11:26.476Z,57.90
2023-06-24T16:13:53.424Z,57.90
2023-06-24T16:16:20.278Z,58.00
2023-06-24T16:18:48.372Z,57.90
2023-06-24T16:21:15.201Z,58.50
2023-06-24T16:23:42.094Z,57.90
2023-06-24T16:26:09.017Z,58.40
2023-06-24T16:28:35.870Z,57.90
2023-06-24T16:31:03.153Z,58.00
2023-06-24T16:33:30.028Z,57.90
2023-06-24T16:35:57.242Z,58.00
2023-06-24T16:38:24.052Z,57.90
2023-06-24T16:40:50.838Z,57.90
2023-06-24T16:43:17.730Z,58.00
2023-06-24T16:45:46.275Z,58.50
2023-06-24T16:48:14.560Z,57.70
2023-06-24T16:50:41.504Z,57.50
2023-06-24T16:53:09.263Z,57.60
2023-06-24T16:55:36.110Z,57.90
2023-06-24T16:58:02.902Z,57.70
2023-06-24T17:00:33.115Z,57.60
2023-06-24T17:03:00.281Z,57.00
2023-06-24T17:05:27.409Z,56.80
2023-06-24T17:07:54.199Z,56.80
2023-06-24T17:10:21.665Z,56.80
2023-06-24T17:12:48.509Z,56.80
2023-06-24T17:15:15.936Z,56.90
2023-06-24T17:17:43.700Z,57.00
2023-06-24T17:20:10.898Z,56.90
2023-06-24T17:22:37.745Z,57.10
2023-06-24T17:25:05.071Z,57.20
2023-06-24T17:27:31.990Z,57.60
2023-06-24T17:29:59.779Z,57.10
2023-06-24T17:32:26.694Z,57.30
2023-06-24T17:34:53.740Z,57.40
2023-06-24T17:37:20.584Z,57.20
2023-06-24T17:39:47.713Z,57.10
2023-06-24T17:42:14.571Z,57.20
2023-06-24T17:44:42.114Z,57.20
2023-06-24T17:47:08.978Z,56.90
2023-06-24T17:49:36.242Z,56.30
2023-06-24T17:52:03.707Z,56.30
2023-06-24T17:54:30.925Z,56.50
2023-06-24T17:56:57.765Z,56.60
2023-06-24T17:59:25.290Z,56.50
2023-06-24T18:01:52.273Z,56.00
2023-06-24T18:04:19.686Z,56.20
2023-06-24T18:06:46.592Z,56.30
2023-06-24T18:09:13.683Z,56.30
2023-06-24T18:11:40.701Z,56.60
2023-06-24T18:14:09.224Z,56.70
2023-06-24T18:16:40.795Z,56.90
2023-06-24T18:19:10.128Z,57.00
2023-06-24T18:21:37.325Z,56.90
2023-06-24T18:24:04.206Z,57.00
2023-06-24T18:26:31.032Z,56.90
2023-06-24T18:28:58.926Z,56.90
2023-06-24T18:31:26.981Z,57.10
2023-06-24T18:33:56.567Z,57.20
2023-06-24T18:36:24.949Z,57.40
2023-06-24T18:38:54.796Z,57.40
2023-06-24T18:41:21.654Z,57.40
2023-06-24T18:43:48.907Z,57.50
2023-06-24T18:46:18.070Z,57.60
2023-06-24T18:48:46.544Z,57.70
2023-06-24T18:51:13.787Z,57.60
2023-06-24T18:53:40.615Z,57.70
2023-06-24T18:56:07.483Z,57.80
2023-06-24T18:58:37.561Z,57.90
2023-06-24T19:01:04.652Z,58.00
2023-06-24T19:03:31.704Z,57.90
2023-06-24T19:05:59.010Z,57.90
2023-06-24T19:08:28.814Z,58.00
2023-06-24T19:10:58.226Z,58.00
2023-06-24T19:13:33.769Z,58.10
2023-06-24T19:16:02.411Z,58.20
2023-06-24T19:18:29.220Z,58.30
2023-06-24T19:20:56.064Z,58.40
2023-06-24T19:23:22.839Z,58.40
2023-06-24T19:25:49.761Z,58.50
2023-06-24T19:28:16.808Z,58.50
2023-06-24T19:30:43.660Z,58.50
2023-06-24T19:33:10.905Z,58.40
2023-06-24T19:35:40.680Z,58.50
2023-06-24T19:38:07.539Z,58.30
2023-06-24T19:40:34.710Z,58.30
2023-06-24T19:43:01.741Z,58.30
2023-06-24T19:45:28.524Z,58.40
2023-06-24T19:47:55.413Z,58.40
2023-06-24T19:50:23.351Z,58.70
2023-06-24T19:52:50.154Z,58.70
2023-06-24T19:55:17.010Z,58.70
2023-06-24T19:57:44.096Z,58.60
2023-06-24T20:00:11.213Z,58.70
2023-06-24T20:02:38.436Z,58.60
2023-06-24T20:05:05.508Z,58.70
2023-06-24T20:07:35.453Z,58.90
2023-06-24T20:10:02.395Z,58.80
2023-06-24T20:12:29.401Z,58.80
2023-06-24T20:14:56.177Z,58.70
2023-06-24T20:17:26.107Z,58.90
2023-06-24T20:19:55.481Z,59.00
2023-06-24T20:22:23.617Z,58.80
2023-06-24T20:24:50.533Z,59.00
2023-06-24T20:27:17.958Z,58.90
2023-06-24T20:29:44.819Z,59.00
2023-06-24T20:32:11.716Z,59.10
2023-06-24T20:34:38.567Z,59.00
2023-06-24T20:37:05.593Z,59.00
2023-06-24T20:39:34.608Z,59.00
2023-06-24T20:42:04.370Z,59.00
2023-06-24T20:44:31.650Z,59.00
2023-06-24T20:46:58.447Z,59.10
2023-06-24T20:49:25.386Z,59.10
2023-06-24T20:51:55.379Z,59.00
2023-06-24T20:54:22.769Z,59.20
2023-06-24T20:56:54.056Z,59.30
2023-06-24T20:59:20.901Z,59.40
2023-06-24T21:01:47.848Z,59.50
2023-06-24T21:04:16.905Z,59.70
2023-06-24T21:06:46.586Z,59.50
2023-06-24T21:09:13.733Z,59.50
2023-06-24T21:11:40.884Z,59.60
2023-06-24T21:14:10.059Z,59.70
2023-06-24T21:16:36.867Z,59.70
2023-06-24T21:19:03.993Z,59.60
2023-06-24T21:21:30.999Z,59.60
2023-06-24T21:23:57.865Z,59.60
2023-06-24T21:26:26.665Z,59.70
2023-06-24T21:28:54.101Z,60.40
2023-06-24T21:31:21.092Z,59.70
2023-06-24T21:33:48.519Z,59.60
2023-06-24T21:36:17.196Z,59.70
2023-06-24T21:38:44.076Z,59.60
2023-06-24T21:41:10.932Z,59.70
2023-06-24T21:43:37.946Z,59.80
2023-06-24T21:46:05.773Z,59.90
2023-06-24T21:48:32.795Z,60.20
2023-06-24T21:50:59.602Z,60.40
2023-06-24T21:53:32.991Z,60.50
2023-06-24T21:56:00.037Z,60.60
2023-06-24T21:58:27.161Z,60.60
2023-06-24T22:00:54.071Z,60.50
2023-06-24T22:03:21.264Z,60.30
2023-06-24T22:05:48.156Z,59.90
2023-06-24T22:08:17.296Z,59.70
2023-06-24T22:10:44.706Z,59.70
2023-06-24T22:13:11.478Z,59.70
2023-06-24T22:15:39.456Z,59.70
2023-06-24T22:18:07.671Z,59.70
2023-06-24T22:20:34.822Z,59.70
2023-06-24T22:23:02.011Z,59.70
2023-06-24T22:25:29.167Z,59.60
2023-06-24T22:27:59.434Z,59.50
2023-06-24T22:30:26.733Z,59.50
2023-06-24T22:32:53.996Z,59.60
2023-06-24T22:35:20.890Z,59.60
2023-06-24T22:37:48.637Z,59.60
2023-06-24T22:40:16.007Z,59.70
2023-06-24T22:42:43.169Z,59.60
2023-06-24T22:45:12.775Z,59.50
2023-06-24T22:47:40.709Z,59.40
2023-06-24T22:50:09.819Z,59.50
2023-06-24T22:52:37.486Z,59.50
2023-06-24T22:55:04.847Z,59.50
2023-06-24T22:57:31.919Z,59.60
2023-06-24T22:59:58.724Z,59.70
2023-06-24T23:02:26.989Z,59.80
2023-06-24T23:04:54.175Z,59.80
2023-06-24T23:07:21.731Z,59.80
2023-06-24T23:09:48.907Z,59.80
2023-06-24T23:12:16.175Z,59.80
2023-06-24T23:14:42.987Z,59.90
2023-06-24T23:17:11.982Z,60.00
2023-06-24T23:19:39.093Z,59.90
2023-06-24T23:22:07.112Z,59.70
2023-06-24T23:24:35.562Z,59.50
2023-06-24T23:27:03.561Z,59.40
2023-06-24T23:29:30.537Z,59.30
2023-06-24T23:31:58.661Z,59.30
2023-06-24T23:34:26.092Z,59.50
2023-06-24T23:36:53.320Z,59.60
2023-06-24T23:39:20.355Z,59.60
2023-06-24T23:41:47.423Z,59.60
2023-06-24T23:44:14.501Z,59.50
2023-06-24T23:46:41.386Z,59.60
2023-06-24T23:49:08.393Z,59.70
2023-06-24T23:51:35.219Z,59.70
2023-06-24T23:54:02.807Z,59.70
2023-06-24T23:56:29.692Z,59.80
2023-06-24T23:58:56.552Z,59.70
